Dallas, Texas
Traffic Map
Current Weather Conditions
Dallas, Texas
Broken Clouds
Broken Clouds
86°
Feels Like: 91°
Wind Chill: 86° Ceiling: 30000
Heat Index: 91° Visibility: 10mi
Dew Point: 70° Wind: 14mph
Humidity: 59% Direction: 130° (SE)
Pressure: 29.9in Gusts: 0mph
Raw Report DataKDAL 310053Z 13012KT 10SM FEW060 SCT160 BKN300 30/21 A2990 RMK AO2 SLP117 T03000211
Traffic Incident Summary
Active as of:
Severity:
Category:
InformationThere was an issue retrieving the traffic information for this location. Please try a different location or try again shortly.
Advertisements
Track Severe Weather on mobile